Portada
METAR-TAF:

METAR-TAF

Aeroports :

Brevoort Island, Nunavut, Canadà

latitud: 63-20N, longitud: 064-09W, altitud: 367 m

Observació

L'informe es va fer fa 1 hora i 8 minuts, a les 19:00 UTC
Vent 4 kt amb direcció variable
Temperatura 4°C
Humitat 70%
Pressió 1018 hPa

METAR: CWOB 151900Z AUTO VRB04KT ////SM NCD 04/M01 A3007

Hora: 16:08 (20:08 UTC)


TAF: manca

Observacions i pronòstics meteorològics de més de 4000 aeroports (METAR i TAF).

Les estacions disponibles són els punts grocs i vermells al mapa.

Posi el ratolí al punt desitjat per veure el nom de l'estació.

Feu clic per veure les observacions i els pronòstics meteorològics.

Per canviar el mapa: feu clic els botons verds amb una creu de color negre per apropar; al botó verd amb un guió per allunyar la imatge; o en les fletxes verdes per a mapes adjacents.


METAR-TAF: